createdAt,value
2022-11-07T00:00:39.761Z,2.80
2022-11-07T00:05:41.144Z,2.20
2022-11-07T00:10:42.376Z,1.80
2022-11-07T00:15:43.601Z,1.60
2022-11-07T00:20:44.847Z,1.95
2022-11-07T00:25:46.155Z,2.40
2022-11-07T00:30:47.384Z,2.35
2022-11-07T00:35:49.343Z,2.20
2022-11-07T00:40:54.339Z,2.00
2022-11-07T00:45:55.830Z,2.25
2022-11-07T00:50:57.114Z,2.17
2022-11-07T00:56:02.795Z,2.20
2022-11-07T01:01:08.271Z,2.70
2022-11-07T01:06:09.701Z,2.57
2022-11-07T01:11:10.919Z,2.20
2022-11-07T01:16:12.232Z,2.47
2022-11-07T01:21:16.498Z,1.98
2022-11-07T01:26:18.092Z,15.80
2022-11-07T01:31:19.351Z,10.40
2022-11-07T01:36:20.565Z,4.85
2022-11-07T01:41:26.494Z,3.00
2022-11-07T01:46:32.488Z,2.50
2022-11-07T01:51:41.645Z,2.83
2022-11-07T01:56:43.839Z,2.33
2022-11-07T02:01:45.384Z,2.00
2022-11-07T02:06:48.019Z,2.00
2022-11-07T02:11:49.279Z,2.13
2022-11-07T02:16:50.686Z,2.20
2022-11-07T02:21:58.068Z,2.00
2022-11-07T02:27:01.039Z,2.10
2022-11-07T02:32:03.596Z,1.97
2022-11-07T02:37:07.713Z,2.22
2022-11-07T02:42:09.405Z,2.40
2022-11-07T02:47:10.631Z,2.27
2022-11-07T02:52:11.852Z,2.33
2022-11-07T02:57:13.112Z,2.50
2022-11-07T03:02:14.481Z,3.05
2022-11-07T03:07:15.846Z,2.67
2022-11-07T03:12:17.083Z,2.40
2022-11-07T03:17:18.314Z,2.45
2022-11-07T03:22:19.537Z,2.43
2022-11-07T03:27:20.763Z,2.20
2022-11-07T03:32:22.798Z,2.90
2022-11-07T03:37:24.016Z,2.60
2022-11-07T03:42:25.260Z,3.50
2022-11-07T03:47:26.484Z,2.67
2022-11-07T03:52:27.703Z,2.53
2022-11-07T03:57:28.934Z,2.50
2022-11-07T04:02:30.238Z,1.80
2022-11-07T04:07:31.628Z,2.33
2022-11-07T04:12:51.701Z,2.00
2022-11-07T04:17:52.925Z,2.45
2022-11-07T04:22:54.348Z,2.05
2022-11-07T04:27:55.581Z,1.70
2022-11-07T04:32:58.006Z,1.55
2022-11-07T04:38:00.954Z,2.07
2022-11-07T04:43:08.778Z,2.30
2022-11-07T04:48:12.582Z,2.42
2022-11-07T04:53:15.004Z,2.13
2022-11-07T04:58:16.507Z,2.47
2022-11-07T05:03:18.079Z,2.03
2022-11-07T05:08:19.615Z,2.28
2022-11-07T05:13:20.827Z,2.28
2022-11-07T05:18:24.946Z,1.80
2022-11-07T05:23:27.785Z,1.60
2022-11-07T05:28:38.194Z,1.60
2022-11-07T05:33:40.212Z,1.38
2022-11-07T05:38:42.444Z,2.15
2022-11-07T05:43:44.127Z,3.90
2022-11-07T05:48:45.374Z,2.25
2022-11-07T05:53:46.605Z,2.17
2022-11-07T05:58:47.839Z,3.05
2022-11-07T06:03:49.065Z,2.80
2022-11-07T06:08:50.312Z,5.03
2022-11-07T06:13:52.775Z,4.45
2022-11-07T06:18:54.072Z,5.80
2022-11-07T06:23:55.286Z,5.55
2022-11-07T06:28:56.536Z,4.43
2022-11-07T06:33:57.766Z,7.77
2022-11-07T06:38:59.017Z,3.05
2022-11-07T06:44:00.304Z,3.00
2022-11-07T06:49:01.552Z,3.00
2022-11-07T06:54:02.864Z,2.58
2022-11-07T06:59:04.274Z,2.57
2022-11-07T07:04:05.516Z,2.75
2022-11-07T07:09:07.054Z,2.90
2022-11-07T07:14:11.645Z,8.83
2022-11-07T07:19:13.291Z,5.10
2022-11-07T07:24:14.531Z,6.40
2022-11-07T07:29:15.811Z,6.50
2022-11-07T07:34:17.065Z,6.13
2022-11-07T07:39:18.287Z,6.70
2022-11-07T07:44:19.513Z,4.05
2022-11-07T07:49:20.760Z,3.40
2022-11-07T07:54:21.990Z,3.30
2022-11-07T07:59:23.239Z,3.00
2022-11-07T08:04:24.515Z,3.30
2022-11-07T08:09:25.811Z,2.67
2022-11-07T08:14:27.059Z,2.60
2022-11-07T08:19:29.592Z,2.70
2022-11-07T08:24:30.825Z,2.80
2022-11-07T08:29:32.131Z,2.57
2022-11-07T08:34:33.357Z,2.90
2022-11-07T08:39:34.897Z,1.65
2022-11-07T08:44:36.687Z,1.30
2022-11-07T08:49:37.953Z,1.60
2022-11-07T08:54:39.170Z,1.20
2022-11-07T08:59:40.437Z,1.20
2022-11-07T09:04:41.718Z,1.27
2022-11-07T09:09:43.044Z,1.30
2022-11-07T09:14:44.304Z,2.53
2022-11-07T09:19:45.539Z,1.80
2022-11-07T09:24:46.821Z,1.75
2022-11-07T09:29:48.176Z,1.30
2022-11-07T09:34:56.051Z,1.10
2022-11-07T09:39:59.502Z,1.42
2022-11-07T09:45:01.269Z,1.33
2022-11-07T09:50:22.383Z,1.10
2022-11-07T09:55:44.476Z,1.27
2022-11-07T10:00:45.772Z,2.80
2022-11-07T10:05:54.128Z,1.03
2022-11-07T10:10:57.295Z,1.50
2022-11-07T10:16:06.200Z,1.00
2022-11-07T10:21:37.632Z,1.40
2022-11-07T10:26:41.348Z,0.93
2022-11-07T10:31:57.316Z,1.08
2022-11-07T10:36:58.558Z,1.33
2022-11-07T10:42:03.911Z,1.45
2022-11-07T10:47:13.869Z,1.20
2022-11-07T10:52:18.808Z,1.30
2022-11-07T10:57:20.634Z,1.15
2022-11-07T11:02:26.198Z,1.20
2022-11-07T11:07:35.619Z,1.20
2022-11-07T11:12:37.519Z,2.33
2022-11-07T11:17:39.225Z,1.35
2022-11-07T11:22:42.033Z,1.33
2022-11-07T11:27:43.936Z,1.33
2022-11-07T11:32:48.338Z,0.98
2022-11-07T11:37:57.934Z,2.27
2022-11-07T11:43:02.982Z,2.00
2022-11-07T11:48:19.558Z,1.55
2022-11-07T11:53:21.838Z,3.33
2022-11-07T11:58:45.886Z,1.87
2022-11-07T12:03:56.766Z,2.53
2022-11-07T12:09:27.511Z,1.95
2022-11-07T12:14:31.538Z,2.23
2022-11-07T12:19:51.763Z,1.33
2022-11-07T12:25:15.993Z,1.70
2022-11-07T12:30:20.171Z,1.40
2022-11-07T12:35:27.232Z,1.37
2022-11-07T12:40:34.776Z,1.55
2022-11-07T12:45:41.948Z,1.10
2022-11-07T12:50:46.216Z,1.40
2022-11-07T12:56:00.329Z,2.13
2022-11-07T13:01:02.407Z,1.83
2022-11-07T13:06:09.955Z,1.00
2022-11-07T13:11:18.579Z,1.65
2022-11-07T13:16:24.427Z,1.02
2022-11-07T13:21:25.668Z,1.30
2022-11-07T13:26:46.324Z,1.20
2022-11-07T13:31:53.341Z,1.48
2022-11-07T13:36:57.848Z,1.35
2022-11-07T13:41:59.456Z,1.57
2022-11-07T13:47:02.624Z,3.35
2022-11-07T13:52:10.935Z,1.13
2022-11-07T13:57:18.429Z,3.53
2022-11-07T14:02:20.725Z,2.30
2022-11-07T14:07:26.479Z,1.95
2022-11-07T14:12:28.444Z,2.13
2022-11-07T14:17:34.901Z,1.77
2022-11-07T14:22:36.309Z,1.88
2022-11-07T14:27:45.259Z,1.25
2022-11-07T14:32:51.277Z,1.40
2022-11-07T14:37:52.694Z,2.03
2022-11-07T14:42:54.877Z,2.88
2022-11-07T14:47:56.162Z,1.50
2022-11-07T14:53:01.748Z,1.30
2022-11-07T14:58:03.923Z,1.77
2022-11-07T15:03:05.261Z,1.40
2022-11-07T15:08:06.554Z,1.30
2022-11-07T15:13:24.978Z,1.00
2022-11-07T15:18:27.464Z,1.57
2022-11-07T15:23:30.791Z,1.60
2022-11-07T15:28:41.293Z,2.55
2022-11-07T15:33:42.565Z,2.05
2022-11-07T15:38:43.895Z,2.40
2022-11-07T15:43:45.271Z,3.17
2022-11-07T15:48:46.537Z,3.28
2022-11-07T15:53:47.896Z,4.20
2022-11-07T15:58:49.599Z,4.57
2022-11-07T16:03:50.903Z,3.83
2022-11-07T16:08:52.198Z,3.00
2022-11-07T16:14:08.906Z,3.10
2022-11-07T16:19:19.332Z,4.35
2022-11-07T16:24:20.740Z,4.47
2022-11-07T16:29:22.008Z,3.53
2022-11-07T16:34:23.267Z,3.85
2022-11-07T16:39:24.659Z,4.97
2022-11-07T16:44:26.621Z,2.58
2022-11-07T16:49:32.351Z,3.75
2022-11-07T16:54:33.615Z,3.87
2022-11-07T16:59:34.864Z,2.65
2022-11-07T17:04:36.264Z,3.00
2022-11-07T17:09:37.532Z,4.30
2022-11-07T17:14:38.818Z,5.60
2022-11-07T17:19:40.377Z,4.83
2022-11-07T17:24:42.957Z,4.00
2022-11-07T17:29:44.244Z,6.10
2022-11-07T17:34:46.616Z,9.23
2022-11-07T17:39:50.270Z,8.77
2022-11-07T17:44:51.523Z,11.88
2022-11-07T17:49:52.885Z,11.30
2022-11-07T17:54:54.843Z,7.90
2022-11-07T17:59:56.131Z,7.50
2022-11-07T18:04:57.378Z,13.57
2022-11-07T18:09:58.979Z,7.17
2022-11-07T18:15:00.246Z,7.78
2022-11-07T18:20:03.934Z,7.10
2022-11-07T18:25:06.353Z,7.40
2022-11-07T18:30:07.996Z,8.23
2022-11-07T18:35:09.848Z,7.67
2022-11-07T18:40:11.678Z,13.93
2022-11-07T18:45:13.449Z,12.90
2022-11-07T18:50:14.925Z,9.50
2022-11-07T18:55:16.200Z,10.23
2022-11-07T19:00:17.622Z,12.57
2022-11-07T19:05:18.992Z,9.93
2022-11-07T19:10:20.376Z,8.77
2022-11-07T19:15:24.875Z,7.32
2022-11-07T19:20:26.215Z,4.40
2022-11-07T19:25:27.469Z,5.53
2022-11-07T19:30:31.094Z,7.18
2022-11-07T19:35:32.337Z,5.77
2022-11-07T19:40:33.636Z,5.80
2022-11-07T19:45:35.202Z,8.85
2022-11-07T19:50:37.472Z,7.87
2022-11-07T19:55:38.733Z,9.13
2022-11-07T20:00:40.137Z,8.23
2022-11-07T20:05:41.591Z,8.67
2022-11-07T20:10:50.366Z,9.47
2022-11-07T20:15:51.643Z,15.13
2022-11-07T20:20:59.675Z,4.90
2022-11-07T20:26:04.405Z,6.93
2022-11-07T20:31:06.794Z,8.32
2022-11-07T20:36:09.601Z,12.87
2022-11-07T20:41:12.191Z,11.68
2022-11-07T20:46:14.945Z,6.90
2022-11-07T20:51:17.783Z,8.27
2022-11-07T20:56:19.575Z,7.93
2022-11-07T21:01:25.394Z,8.03
2022-11-07T21:06:26.762Z,9.60
2022-11-07T21:11:28.266Z,8.60
2022-11-07T21:16:29.583Z,10.10
2022-11-07T21:21:32.641Z,8.98
2022-11-07T21:26:35.471Z,8.37
2022-11-07T21:31:37.869Z,9.07
2022-11-07T21:36:39.217Z,8.73
2022-11-07T21:41:40.834Z,7.68
2022-11-07T21:46:42.061Z,9.82
2022-11-07T21:51:43.343Z,9.37
2022-11-07T21:56:44.585Z,8.68
2022-11-07T22:01:48.553Z,8.20
2022-11-07T22:06:51.506Z,8.45
2022-11-07T22:11:52.803Z,7.65
2022-11-07T22:16:54.934Z,5.60
2022-11-07T22:21:56.188Z,5.78
2022-11-07T22:26:57.512Z,5.87
2022-11-07T22:32:01.856Z,6.43
2022-11-07T22:37:03.134Z,7.50
2022-11-07T22:42:04.436Z,6.47
2022-11-07T22:47:05.743Z,6.40
2022-11-07T22:52:07.050Z,7.20
2022-11-07T22:57:08.360Z,5.85
2022-11-07T23:02:09.740Z,5.68
2022-11-07T23:07:11.054Z,6.17
2022-11-07T23:12:12.431Z,5.35
2022-11-07T23:17:13.723Z,6.70
2022-11-07T23:22:14.935Z,6.38
2022-11-07T23:27:19.173Z,4.88
2022-11-07T23:32:20.923Z,5.20
2022-11-07T23:37:22.440Z,5.45
2022-11-07T23:42:23.679Z,4.60
2022-11-07T23:47:43.345Z,4.40
2022-11-07T23:52:44.586Z,5.45
2022-11-07T23:58:04.516Z,4.87
